createdAt,value
2023-03-18T00:01:55.152Z,100458.81
2023-03-18T00:04:22.319Z,100466.56
2023-03-18T00:06:49.433Z,100467.38
2023-03-18T00:09:17.293Z,100457.16
2023-03-18T00:11:46.337Z,100438.22
2023-03-18T00:14:13.606Z,100455.38
2023-03-18T00:16:41.017Z,100459.59
2023-03-18T00:19:08.441Z,100446.69
2023-03-18T00:21:35.517Z,100456.97
2023-03-18T00:24:02.612Z,100459.50
2023-03-18T00:26:30.050Z,100453.47
2023-03-18T00:28:58.099Z,100456.84
2023-03-18T00:31:26.471Z,100451.75
2023-03-18T00:33:53.701Z,100445.69
2023-03-18T00:36:25.860Z,100442.16
2023-03-18T00:38:57.938Z,100439.59
2023-03-18T00:41:30.045Z,100435.28
2023-03-18T00:43:57.260Z,100436.13
2023-03-18T00:46:35.834Z,100439.53
2023-03-18T00:49:05.757Z,100442.84
2023-03-18T00:51:35.900Z,100431.56
2023-03-18T00:54:07.471Z,100432.47
2023-03-18T00:56:37.820Z,100435.88
2023-03-18T00:59:06.823Z,100427.31
2023-03-18T01:01:34.801Z,100432.34
2023-03-18T01:04:02.254Z,100413.53
2023-03-18T01:06:32.713Z,100410.09
2023-03-18T01:09:01.657Z,100421.97
2023-03-18T01:11:29.066Z,100412.53
2023-03-18T01:13:56.981Z,100415.94
2023-03-18T01:16:24.411Z,100420.13
2023-03-18T01:18:52.660Z,100418.38
2023-03-18T01:21:20.178Z,100414.03
2023-03-18T01:23:55.357Z,100409.69
2023-03-18T01:26:23.298Z,100401.13
2023-03-18T01:28:50.398Z,100395.81
2023-03-18T01:31:19.252Z,100395.88
2023-03-18T01:33:47.989Z,100399.25
2023-03-18T01:36:15.796Z,100402.56
2023-03-18T01:38:45.152Z,100402.56
2023-03-18T01:41:14.772Z,100404.25
2023-03-18T01:43:43.038Z,100399.06
2023-03-18T01:46:38.867Z,100393.97
2023-03-18T01:49:12.784Z,100397.25
2023-03-18T01:52:08.351Z,100403.16
2023-03-18T01:54:43.813Z,100397.19
2023-03-18T01:57:11.729Z,100398.78
2023-03-18T01:59:42.118Z,100387.59
2023-03-18T02:02:12.224Z,100406.44
2023-03-18T02:04:50.614Z,100402.19
2023-03-18T02:07:21.171Z,100402.19
2023-03-18T02:09:50.166Z,100401.22
2023-03-18T02:12:29.486Z,100407.28
2023-03-18T02:15:02.689Z,100405.53
2023-03-18T02:17:36.615Z,100415.69
2023-03-18T02:20:43.431Z,100405.41
2023-03-18T02:24:06.809Z,100425.97
2023-03-18T02:26:59.881Z,100425.97
2023-03-18T02:29:35.501Z,100425.97
2023-03-18T02:32:07.703Z,100424.25
2023-03-18T02:34:37.880Z,100419.16
2023-03-18T02:37:08.056Z,100419.16
2023-03-18T02:39:37.674Z,100422.56
2023-03-18T02:42:05.572Z,100424.19
2023-03-18T02:44:44.144Z,100419.09
2023-03-18T02:47:33.822Z,100417.19
2023-03-18T02:50:01.081Z,100418.19
2023-03-18T02:52:28.178Z,100412.16
2023-03-18T02:54:59.312Z,100413.00
2023-03-18T02:57:28.168Z,100410.31
2023-03-18T02:59:57.291Z,100408.63
2023-03-18T03:02:24.664Z,100410.38
2023-03-18T03:04:52.023Z,100410.38
2023-03-18T03:07:20.316Z,100404.34
2023-03-18T03:09:51.662Z,100381.94
2023-03-18T03:12:19.982Z,100396.63
2023-03-18T03:14:51.859Z,100401.81
2023-03-18T03:17:19.801Z,100404.34
2023-03-18T03:19:46.778Z,100404.31
2023-03-18T03:22:16.123Z,100398.28
2023-03-18T03:24:43.822Z,100394.88
2023-03-18T03:27:11.283Z,100396.56
2023-03-18T03:29:38.802Z,100384.66
2023-03-18T03:32:06.182Z,100377.84
2023-03-18T03:34:33.925Z,100376.91
2023-03-18T03:37:01.344Z,100376.06
2023-03-18T03:39:28.612Z,100371.72
2023-03-18T03:41:55.666Z,100369.19
2023-03-18T03:44:22.701Z,100377.00
2023-03-18T03:46:49.878Z,100377.84
2023-03-18T03:49:17.147Z,100373.59
2023-03-18T03:51:44.496Z,100369.34
2023-03-18T03:54:13.458Z,100361.72
2023-03-18T03:56:41.177Z,100359.94
2023-03-18T03:59:08.701Z,100373.59
2023-03-18T04:01:56.070Z,100374.31
2023-03-18T04:04:24.320Z,100364.03
2023-03-18T04:06:51.728Z,100344.97
2023-03-18T04:09:18.940Z,100379.47
2023-03-18T04:11:46.055Z,100377.78
2023-03-18T04:14:13.734Z,100381.16
2023-03-18T04:16:40.789Z,100379.41
2023-03-18T04:19:10.357Z,100385.38
2023-03-18T04:21:37.493Z,100383.53
2023-03-18T04:24:05.130Z,100382.75
2023-03-18T04:26:33.110Z,100399.72
2023-03-18T04:29:03.972Z,100387.69
2023-03-18T04:31:32.393Z,100389.34
2023-03-18T04:34:00.198Z,100400.50
2023-03-18T04:36:28.581Z,100384.91
2023-03-18T04:38:57.258Z,100401.34
2023-03-18T04:41:25.157Z,100391.00
2023-03-18T04:43:54.759Z,100399.56
2023-03-18T04:46:30.111Z,100402.06
2023-03-18T04:48:58.616Z,100396.94
2023-03-18T04:51:27.628Z,100394.22
2023-03-18T04:53:56.589Z,100402.78
2023-03-18T04:56:26.612Z,100396.78
2023-03-18T04:58:54.306Z,100405.38
2023-03-18T05:01:26.893Z,100409.59
2023-03-18T05:03:54.094Z,100401.13
2023-03-18T05:06:27.655Z,100391.00
2023-03-18T05:08:59.133Z,100385.03
2023-03-18T05:11:29.522Z,100375.59
2023-03-18T05:13:59.669Z,100377.38
2023-03-18T05:16:28.267Z,100374.81
2023-03-18T05:18:55.652Z,100377.38
2023-03-18T05:21:22.732Z,100367.19
2023-03-18T05:23:49.781Z,100367.41
2023-03-18T05:26:17.398Z,100369.13
2023-03-18T05:28:47.140Z,100372.59
2023-03-18T05:31:34.432Z,100361.59
2023-03-18T05:34:02.318Z,100359.94
2023-03-18T05:36:33.848Z,100341.16
2023-03-18T05:39:05.342Z,100353.13
2023-03-18T05:41:32.645Z,100335.19
2023-03-18T05:44:00.505Z,100349.00
2023-03-18T05:46:29.455Z,100342.19
2023-03-18T05:49:23.513Z,100358.44
2023-03-18T05:52:13.969Z,100364.47
2023-03-18T05:54:44.931Z,100360.19
2023-03-18T05:57:15.442Z,100357.69
2023-03-18T05:59:44.099Z,100362.00
2023-03-18T06:02:11.902Z,100362.94
2023-03-18T06:04:40.382Z,100349.25
2023-03-18T06:07:07.599Z,100355.34
2023-03-18T06:09:34.698Z,100364.69
2023-03-18T06:12:03.724Z,100362.22
2023-03-18T06:14:31.613Z,100368.19
2023-03-18T06:17:01.876Z,100368.19
2023-03-18T06:19:30.860Z,100363.13
2023-03-18T06:21:58.987Z,100370.00
2023-03-18T06:24:26.424Z,100365.72
2023-03-18T06:26:55.548Z,100358.09
2023-03-18T06:29:22.873Z,100367.50
2023-03-18T06:31:50.120Z,100372.72
2023-03-18T06:34:22.259Z,100367.63
2023-03-18T06:36:49.412Z,100378.81
2023-03-18T06:39:20.088Z,100377.22
2023-03-18T06:41:47.216Z,100384.13
2023-03-18T06:44:31.580Z,100384.19
2023-03-18T06:47:07.184Z,100382.59
2023-03-18T06:49:37.820Z,100391.31
2023-03-18T06:52:11.293Z,100394.94
2023-03-18T06:54:38.493Z,100399.28
2023-03-18T06:57:06.623Z,100405.34
2023-03-18T06:59:35.623Z,100390.00
2023-03-18T07:02:05.575Z,100404.78
2023-03-18T07:04:34.017Z,100404.03
2023-03-18T07:07:01.300Z,100391.34
2023-03-18T07:09:28.748Z,100387.09
2023-03-18T07:11:58.943Z,100396.66
2023-03-18T07:14:26.574Z,100389.00
2023-03-18T07:16:53.673Z,100404.41
2023-03-18T07:19:21.030Z,100394.28
2023-03-18T07:21:49.738Z,100403.75
2023-03-18T07:24:17.523Z,100404.59
2023-03-18T07:26:44.624Z,100411.59
2023-03-18T07:29:11.727Z,100415.03
2023-03-18T07:31:38.807Z,100415.94
2023-03-18T07:34:06.085Z,100409.09
2023-03-18T07:36:33.430Z,100405.66
2023-03-18T07:39:00.903Z,100413.44
2023-03-18T07:41:28.160Z,100413.47
2023-03-18T07:43:55.773Z,100405.81
2023-03-18T07:46:23.382Z,100403.28
2023-03-18T07:48:50.482Z,100408.47
2023-03-18T07:51:17.732Z,100405.13
2023-03-18T07:53:45.481Z,100398.47
2023-03-18T07:56:12.557Z,100403.88
2023-03-18T07:58:39.662Z,100407.63
2023-03-18T08:01:07.740Z,100408.06
2023-03-18T08:03:35.027Z,100405.88
2023-03-18T08:06:02.984Z,100396.84
2023-03-18T08:08:29.951Z,100404.00
2023-03-18T08:11:00.078Z,100383.66
2023-03-18T08:13:27.266Z,100384.66
2023-03-18T08:15:54.848Z,100385.72
2023-03-18T08:18:22.742Z,100384.06
2023-03-18T08:20:50.181Z,100379.78
2023-03-18T08:23:17.524Z,100378.00
2023-03-18T08:25:49.880Z,100378.91
2023-03-18T08:28:18.270Z,100372.91
2023-03-18T08:30:45.423Z,100376.38
2023-03-18T08:33:12.930Z,100372.91
2023-03-18T08:35:44.191Z,100366.00
2023-03-18T08:38:11.318Z,100366.88
2023-03-18T08:40:41.451Z,100367.78
2023-03-18T08:43:09.486Z,100366.94
2023-03-18T08:45:37.489Z,100372.97
2023-03-18T08:48:04.786Z,100374.75
2023-03-18T08:50:32.224Z,100378.28
2023-03-18T08:53:00.813Z,100375.78
2023-03-18T08:55:34.667Z,100375.88
2023-03-18T08:58:02.371Z,100379.34
2023-03-18T09:00:29.715Z,100382.81
2023-03-18T09:02:56.899Z,100373.41
2023-03-18T09:05:25.197Z,100376.06
2023-03-18T09:07:53.396Z,100373.50
2023-03-18T09:10:21.641Z,100384.75
2023-03-18T09:12:50.130Z,100379.59
2023-03-18T09:15:17.723Z,100376.25
2023-03-18T09:17:59.933Z,100382.25
2023-03-18T09:20:33.608Z,100381.38
2023-03-18T09:23:01.172Z,100386.53
2023-03-18T09:25:28.237Z,100382.22
2023-03-18T09:27:55.337Z,100384.81
2023-03-18T09:30:22.897Z,100379.63
2023-03-18T09:32:49.991Z,100377.94
2023-03-18T09:35:17.220Z,100378.78
2023-03-18T09:37:44.803Z,100374.47
2023-03-18T09:40:26.238Z,100378.78
2023-03-18T09:43:10.537Z,100369.31
2023-03-18T09:45:45.090Z,100373.56
2023-03-18T09:48:36.603Z,100367.50
2023-03-18T09:51:21.925Z,100370.09
2023-03-18T09:53:57.018Z,100369.22
2023-03-18T09:56:29.096Z,100367.50
2023-03-18T09:59:03.673Z,100376.97
2023-03-18T10:01:35.778Z,100369.22
2023-03-18T10:04:05.700Z,100376.06
2023-03-18T10:06:33.932Z,100355.38
2023-03-18T10:09:00.950Z,100367.41
2023-03-18T10:11:35.637Z,100357.94
2023-03-18T10:14:27.023Z,100358.72
2023-03-18T10:17:15.456Z,100369.88
2023-03-18T10:19:48.375Z,100366.38
2023-03-18T10:22:24.689Z,100358.56
2023-03-18T10:25:12.949Z,100359.47
2023-03-18T10:28:09.321Z,100346.63
2023-03-18T10:31:07.445Z,100344.94
2023-03-18T10:33:45.221Z,100337.22
2023-03-18T10:36:22.588Z,100339.00
2023-03-18T10:38:51.922Z,100345.06
2023-03-18T10:41:25.400Z,100348.53
2023-03-18T10:43:55.816Z,100353.69
2023-03-18T10:46:26.185Z,100343.28
2023-03-18T10:48:59.319Z,100345.81
2023-03-18T10:51:52.783Z,100345.69
2023-03-18T10:54:19.900Z,100345.56
2023-03-18T10:56:47.627Z,100330.88
2023-03-18T10:59:18.638Z,100331.66
2023-03-18T11:01:50.832Z,100343.69
2023-03-18T11:04:21.799Z,100337.69
2023-03-18T11:06:55.908Z,100327.38
2023-03-18T11:09:30.251Z,100336.84
2023-03-18T11:12:02.958Z,100342.03
2023-03-18T11:14:31.556Z,100337.72
2023-03-18T11:17:01.679Z,100322.22
2023-03-18T11:19:41.516Z,100323.94
2023-03-18T11:22:19.537Z,100323.88
2023-03-18T11:24:47.088Z,100319.50
2023-03-18T11:27:14.405Z,100314.34
2023-03-18T11:29:54.553Z,100307.41
2023-03-18T11:32:34.367Z,100313.44
2023-03-18T11:35:03.054Z,100308.22
2023-03-18T11:37:38.340Z,100303.03
2023-03-18T11:40:14.309Z,100312.44
2023-03-18T11:42:42.586Z,100301.22
2023-03-18T11:45:28.057Z,100308.09
2023-03-18T11:47:55.533Z,100314.13
2023-03-18T11:50:26.219Z,100321.84
2023-03-18T11:53:13.556Z,100314.09
2023-03-18T11:55:57.073Z,100309.81
2023-03-18T11:58:54.799Z,100302.91
2023-03-18T12:01:51.117Z,100311.53
2023-03-18T12:04:52.699Z,100304.56
2023-03-18T12:07:26.681Z,100294.16
2023-03-18T12:10:36.399Z,100308.00
2023-03-18T12:13:22.581Z,100318.41
2023-03-18T12:16:11.143Z,100309.81
2023-03-18T12:18:55.840Z,100305.50
2023-03-18T12:21:35.149Z,100309.81
2023-03-18T12:24:32.425Z,100303.81
2023-03-18T12:27:17.928Z,100308.06
2023-03-18T12:30:06.906Z,100312.31
2023-03-18T12:33:01.622Z,100313.16
2023-03-18T12:36:04.364Z,100306.25
2023-03-18T12:38:49.911Z,100314.84
2023-03-18T12:41:36.027Z,100313.97
2023-03-18T12:44:48.188Z,100311.38
2023-03-18T12:47:25.322Z,100325.06
2023-03-18T12:49:58.561Z,100318.19
2023-03-18T12:52:31.612Z,100324.97
2023-03-18T12:55:15.024Z,100323.06
2023-03-18T12:57:59.771Z,100319.47
2023-03-18T13:00:47.387Z,100308.91
2023-03-18T13:03:32.755Z,100322.50
2023-03-18T13:06:41.223Z,100316.50
2023-03-18T13:09:08.361Z,100322.59
2023-03-18T13:12:09.319Z,100318.25
2023-03-18T13:14:43.063Z,100324.28
2023-03-18T13:17:40.144Z,100315.56
2023-03-18T13:20:15.409Z,100313.81
2023-03-18T13:22:42.457Z,100317.25
2023-03-18T13:25:33.699Z,100315.53
2023-03-18T13:28:18.691Z,100308.63
2023-03-18T13:30:51.564Z,100310.28
2023-03-18T13:33:39.959Z,100310.31
2023-03-18T13:36:38.418Z,100298.16
2023-03-18T13:39:37.627Z,100295.69
2023-03-18T13:42:24.580Z,100302.66
2023-03-18T13:45:18.978Z,100304.44
2023-03-18T13:47:46.629Z,100301.00
2023-03-18T13:50:19.483Z,100309.72
2023-03-18T13:52:48.205Z,100303.78
2023-03-18T13:55:40.263Z,100309.84
2023-03-18T13:58:19.655Z,100315.09
2023-03-18T14:01:15.851Z,100315.97
2023-03-18T14:03:43.011Z,100314.22
2023-03-18T14:06:15.673Z,100313.38
2023-03-18T14:08:43.056Z,100310.78
2023-03-18T14:11:17.312Z,100312.53
2023-03-18T14:13:49.961Z,100310.84
2023-03-18T14:16:23.408Z,100316.06
2023-03-18T14:18:58.750Z,100307.44
2023-03-18T14:21:28.648Z,100305.69
2023-03-18T14:24:07.631Z,100303.16
2023-03-18T14:26:35.145Z,100304.94
2023-03-18T14:29:07.975Z,100305.81
2023-03-18T14:31:41.908Z,100305.88
2023-03-18T14:34:17.949Z,100306.75
2023-03-18T14:36:54.216Z,100305.91
2023-03-18T14:39:22.276Z,100305.91
2023-03-18T14:41:55.654Z,100302.47
2023-03-18T14:44:34.538Z,100297.28
2023-03-18T14:47:06.810Z,100294.75
2023-03-18T14:49:54.905Z,100293.00
2023-03-18T14:52:35.810Z,100287.00
2023-03-18T14:55:08.604Z,100292.22
2023-03-18T14:57:35.972Z,100290.53
2023-03-18T15:00:06.880Z,100290.53
2023-03-18T15:02:38.171Z,100294.91
2023-03-18T15:05:06.952Z,100294.03
2023-03-18T15:07:37.008Z,100280.22
2023-03-18T15:10:11.446Z,100282.00
2023-03-18T15:12:39.091Z,100287.97
2023-03-18T15:15:13.271Z,100280.22
2023-03-18T15:17:40.419Z,100281.91
2023-03-18T15:20:13.157Z,100278.56
2023-03-18T15:22:40.407Z,100283.69
2023-03-18T15:25:11.402Z,100285.44
2023-03-18T15:27:38.784Z,100282.03
2023-03-18T15:30:07.549Z,100288.91
2023-03-18T15:32:46.174Z,100286.31
2023-03-18T15:35:26.949Z,100284.63
2023-03-18T15:38:12.449Z,100278.63
2023-03-18T15:40:48.342Z,100283.84
2023-03-18T15:43:38.508Z,100282.16
2023-03-18T15:46:27.704Z,100283.88
2023-03-18T15:48:56.921Z,100275.28
2023-03-18T15:51:25.970Z,100275.31
2023-03-18T15:53:56.261Z,100275.38
2023-03-18T15:56:30.356Z,100279.69
2023-03-18T15:58:59.875Z,100273.72
2023-03-18T16:01:27.126Z,100279.81
2023-03-18T16:03:54.904Z,100277.22
2023-03-18T16:06:23.059Z,100291.03
2023-03-18T16:08:50.275Z,100292.81
2023-03-18T16:11:17.598Z,100292.84
2023-03-18T16:13:45.528Z,100292.91
2023-03-18T16:16:18.962Z,100291.16
2023-03-18T16:18:46.866Z,100292.94
2023-03-18T16:21:15.011Z,100297.31
2023-03-18T16:23:43.249Z,100299.88
2023-03-18T16:26:17.629Z,100305.09
2023-03-18T16:28:48.204Z,100299.09
2023-03-18T16:31:15.658Z,100296.53
2023-03-18T16:33:43.341Z,100305.19
2023-03-18T16:36:23.220Z,100294.88
2023-03-18T16:38:50.876Z,100308.69
2023-03-18T16:41:18.340Z,100300.13
2023-03-18T16:43:46.007Z,100318.22
2023-03-18T16:46:14.728Z,100304.47
2023-03-18T16:48:41.803Z,100313.03
2023-03-18T16:51:08.955Z,100312.22
2023-03-18T16:53:36.131Z,100320.88
2023-03-18T16:56:20.894Z,100319.16
2023-03-18T16:58:48.115Z,100319.16
2023-03-18T17:01:16.931Z,100322.63
2023-03-18T17:03:44.431Z,100314.91
2023-03-18T17:06:13.445Z,100320.94
2023-03-18T17:08:41.030Z,100314.06
2023-03-18T17:11:10.415Z,100310.63
2023-03-18T17:13:40.532Z,100319.22
2023-03-18T17:16:17.329Z,100326.16
2023-03-18T17:18:44.462Z,100328.75
2023-03-18T17:21:12.685Z,100321.03
2023-03-18T17:23:40.192Z,100333.06
2023-03-18T17:26:11.591Z,100343.41
2023-03-18T17:28:45.733Z,100335.72
2023-03-18T17:31:13.720Z,100343.47
2023-03-18T17:33:41.349Z,100340.00
2023-03-18T17:36:09.691Z,100350.34
2023-03-18T17:38:36.855Z,100343.47
2023-03-18T17:41:13.136Z,100339.19
2023-03-18T17:43:40.514Z,100340.06
2023-03-18T17:46:08.452Z,100338.34
2023-03-18T17:49:01.337Z,100337.47
2023-03-18T17:51:28.501Z,100331.47
2023-03-18T17:54:00.448Z,100342.63
2023-03-18T17:56:28.090Z,100344.34
2023-03-18T17:58:55.461Z,100336.63
2023-03-18T18:01:27.549Z,100331.47
2023-03-18T18:03:56.287Z,100329.75
2023-03-18T18:06:29.281Z,100337.47
2023-03-18T18:09:01.192Z,100342.66
2023-03-18T18:11:34.966Z,100345.25
2023-03-18T18:14:29.180Z,100338.34
2023-03-18T18:16:56.843Z,100336.66
2023-03-18T18:19:24.674Z,100332.38
2023-03-18T18:21:53.275Z,100346.13
2023-03-18T18:24:31.839Z,100347.84
2023-03-18T18:26:59.406Z,100343.53
2023-03-18T18:29:29.759Z,100346.97
2023-03-18T18:31:57.538Z,100348.69
2023-03-18T18:34:24.831Z,100348.72
2023-03-18T18:36:52.797Z,100353.88
2023-03-18T18:39:21.185Z,100344.41
2023-03-18T18:41:48.701Z,100345.28
2023-03-18T18:44:16.347Z,100348.75
2023-03-18T18:46:44.280Z,100357.31
2023-03-18T18:49:23.473Z,100350.44
2023-03-18T18:51:56.058Z,100350.47
2023-03-18T18:54:24.334Z,100344.44
2023-03-18T18:56:52.446Z,100352.16
2023-03-18T18:59:27.855Z,100343.56
2023-03-18T19:01:55.987Z,100340.97
2023-03-18T19:04:24.191Z,100350.44
2023-03-18T19:06:52.910Z,100352.19
2023-03-18T19:09:25.258Z,100343.53
2023-03-18T19:11:53.822Z,100353.03
2023-03-18T19:14:24.795Z,100352.13
2023-03-18T19:16:53.948Z,100346.97
2023-03-18T19:19:24.840Z,100346.09
2023-03-18T19:21:52.184Z,100346.09
2023-03-18T19:24:38.475Z,100346.97
2023-03-18T19:27:27.775Z,100345.25
2023-03-18T19:29:58.855Z,100353.81
2023-03-18T19:32:27.357Z,100356.41
2023-03-18T19:34:54.989Z,100352.09
2023-03-18T19:37:25.063Z,100352.09
2023-03-18T19:39:52.445Z,100355.53
2023-03-18T19:42:19.739Z,100354.66
2023-03-18T19:44:47.820Z,100358.94
2023-03-18T19:47:27.137Z,100365.78
2023-03-18T19:49:55.381Z,100360.63
2023-03-18T19:52:25.408Z,100355.47
2023-03-18T19:54:53.711Z,100358.88
2023-03-18T19:57:28.937Z,100364.03
2023-03-18T20:00:00.979Z,100355.41
2023-03-18T20:02:30.742Z,100353.72
2023-03-18T20:05:00.737Z,100361.41
2023-03-18T20:07:30.244Z,100358.88
2023-03-18T20:09:57.757Z,100356.28
2023-03-18T20:12:31.478Z,100356.25
2023-03-18T20:14:58.543Z,100362.31
2023-03-18T20:17:34.427Z,100353.69
2023-03-18T20:20:01.634Z,100350.25
2023-03-18T20:22:36.181Z,100362.25
2023-03-18T20:25:06.386Z,100367.41
2023-03-18T20:27:33.588Z,100357.94
2023-03-18T20:30:01.436Z,100359.69
2023-03-18T20:32:28.676Z,100362.25
2023-03-18T20:34:55.939Z,100362.25
2023-03-18T20:37:34.989Z,100353.63
2023-03-18T20:40:04.158Z,100353.63
2023-03-18T20:42:32.136Z,100359.63
2023-03-18T20:44:59.369Z,100351.91
2023-03-18T20:47:26.501Z,100351.00
2023-03-18T20:49:54.936Z,100358.75
2023-03-18T20:52:28.649Z,100353.59
2023-03-18T20:54:57.510Z,100357.00
2023-03-18T20:57:25.930Z,100356.16
2023-03-18T20:59:53.246Z,100346.69
2023-03-18T21:02:30.100Z,100363.88
2023-03-18T21:04:58.344Z,100360.44
2023-03-18T21:07:26.340Z,100364.69
2023-03-18T21:09:54.188Z,100360.41
2023-03-18T21:12:22.235Z,100356.97
2023-03-18T21:14:50.343Z,100350.97
2023-03-18T21:17:25.700Z,100351.81
2023-03-18T21:20:05.038Z,100362.09
2023-03-18T21:22:38.790Z,100358.63
2023-03-18T21:25:08.861Z,100365.47
2023-03-18T21:27:36.983Z,100357.75
2023-03-18T21:30:04.584Z,100356.03
2023-03-18T21:32:32.979Z,100351.72
2023-03-18T21:35:00.599Z,100354.28
2023-03-18T21:37:27.700Z,100351.69
2023-03-18T21:39:55.260Z,100346.56
2023-03-18T21:42:23.824Z,100342.25
2023-03-18T21:44:51.747Z,100334.50
2023-03-18T21:47:21.862Z,100337.94
2023-03-18T21:49:49.424Z,100332.81
2023-03-18T21:52:27.803Z,100337.94
2023-03-18T21:54:54.944Z,100331.06
2023-03-18T21:57:23.690Z,100330.19
2023-03-18T21:59:52.348Z,100331.88
2023-03-18T22:02:37.905Z,100334.44
2023-03-18T22:05:11.585Z,100335.25
2023-03-18T22:07:38.857Z,100336.94
2023-03-18T22:10:07.346Z,100348.06
2023-03-18T22:12:34.950Z,100342.06
2023-03-18T22:15:02.079Z,100341.16
2023-03-18T22:17:34.037Z,100342.88
2023-03-18T22:20:01.971Z,100339.41
2023-03-18T22:22:36.956Z,100347.97
2023-03-18T22:25:04.671Z,100347.09
2023-03-18T22:27:32.712Z,100339.38
2023-03-18T22:30:01.170Z,100339.31
2023-03-18T22:32:40.990Z,100342.78
2023-03-18T22:35:20.965Z,100340.16
2023-03-18T22:37:48.812Z,100344.44
2023-03-18T22:40:33.858Z,100350.44
2023-03-18T22:43:01.810Z,100347.84
2023-03-18T22:45:33.140Z,100346.13
2023-03-18T22:48:04.530Z,100350.41
2023-03-18T22:50:34.784Z,100339.25
2023-03-18T22:53:03.683Z,100341.81
2023-03-18T22:55:39.062Z,100343.53
2023-03-18T22:58:16.659Z,100342.63
2023-03-18T23:00:45.068Z,100343.44
2023-03-18T23:03:20.477Z,100344.31
2023-03-18T23:05:49.281Z,100344.25
2023-03-18T23:08:16.856Z,100338.28
2023-03-18T23:10:44.570Z,100334.81
2023-03-18T23:13:21.879Z,100338.22
2023-03-18T23:15:48.940Z,100346.78
2023-03-18T23:18:18.012Z,100330.44
2023-03-18T23:20:47.219Z,100349.34
2023-03-18T23:23:15.382Z,100356.16
2023-03-18T23:25:45.212Z,100364.75
2023-03-18T23:28:12.960Z,100366.44
2023-03-18T23:30:42.925Z,100366.44
2023-03-18T23:33:11.049Z,100364.72
2023-03-18T23:35:38.931Z,100362.09
2023-03-18T23:38:06.724Z,100365.50
2023-03-18T23:40:34.737Z,100363.75
2023-03-18T23:43:01.958Z,100357.72
2023-03-18T23:45:29.380Z,100362.00
2023-03-18T23:47:56.819Z,100359.38
2023-03-18T23:50:24.154Z,100351.63
2023-03-18T23:52:51.294Z,100352.50
2023-03-18T23:55:33.631Z,100351.59
2023-03-18T23:58:01.728Z,100355.88
